createdAt,value
2023-01-28T00:01:11.376Z,2.77
2023-01-28T00:03:39.494Z,2.70
2023-01-28T00:06:14.993Z,2.73
2023-01-28T00:08:42.852Z,2.80
2023-01-28T00:11:13.505Z,2.73
2023-01-28T00:13:41.649Z,2.77
2023-01-28T00:16:09.994Z,2.70
2023-01-28T00:18:38.004Z,2.80
2023-01-28T00:21:09.585Z,2.70
2023-01-28T00:23:39.945Z,2.77
2023-01-28T00:26:14.187Z,2.77
2023-01-28T00:28:43.958Z,2.80
2023-01-28T00:31:18.504Z,2.80
2023-01-28T00:33:48.398Z,2.77
2023-01-28T00:36:17.393Z,2.80
2023-01-28T00:38:50.751Z,2.77
2023-01-28T00:41:22.099Z,2.77
2023-01-28T00:43:52.346Z,2.77
2023-01-28T00:46:22.734Z,2.70
2023-01-28T00:48:50.149Z,2.70
2023-01-28T00:51:20.048Z,2.70
2023-01-28T00:53:47.387Z,2.70
2023-01-28T00:56:18.220Z,2.80
2023-01-28T00:58:46.415Z,2.77
2023-01-28T01:01:26.824Z,2.77
2023-01-28T01:04:02.372Z,2.70
2023-01-28T01:06:39.185Z,2.70
2023-01-28T01:09:11.011Z,2.77
2023-01-28T01:11:39.404Z,2.80
2023-01-28T01:14:06.825Z,2.70
2023-01-28T01:16:35.982Z,2.83
2023-01-28T01:19:03.783Z,2.80
2023-01-28T01:21:31.545Z,2.70
2023-01-28T01:23:58.604Z,2.70
2023-01-28T01:26:27.328Z,2.80
2023-01-28T01:28:54.489Z,2.73
2023-01-28T01:31:23.071Z,2.80
2023-01-28T01:33:52.823Z,2.70
2023-01-28T01:36:21.684Z,2.80
2023-01-28T01:38:53.196Z,2.70
2023-01-28T01:41:32.940Z,2.73
2023-01-28T01:44:05.002Z,2.80
2023-01-28T01:46:50.897Z,2.70
2023-01-28T01:49:27.533Z,2.80
2023-01-28T01:52:03.927Z,2.80
2023-01-28T01:54:33.650Z,2.77
2023-01-28T01:57:03.253Z,2.80
2023-01-28T01:59:34.047Z,2.73
2023-01-28T02:02:07.115Z,2.77
2023-01-28T02:04:45.306Z,2.73
2023-01-28T02:07:18.647Z,2.73
2023-01-28T02:09:45.691Z,2.80
2023-01-28T02:12:21.839Z,2.80
2023-01-28T02:14:59.199Z,2.77
2023-01-28T02:17:27.478Z,2.73
2023-01-28T02:20:13.669Z,2.80
2023-01-28T02:23:21.544Z,2.70
2023-01-28T02:26:28.951Z,2.70
2023-01-28T02:29:41.125Z,2.80
2023-01-28T02:32:22.446Z,2.77
2023-01-28T02:35:27.855Z,2.80
2023-01-28T02:38:11.557Z,2.80
2023-01-28T02:41:16.618Z,2.80
2023-01-28T02:43:47.264Z,2.70
2023-01-28T02:46:44.359Z,2.70
2023-01-28T02:49:49.620Z,2.73
2023-01-28T02:53:08.703Z,2.70
2023-01-28T02:55:56.597Z,2.70
2023-01-28T02:58:58.836Z,2.70
2023-01-28T03:01:39.986Z,2.70
2023-01-28T03:04:29.288Z,2.70
2023-01-28T03:07:04.144Z,2.80
2023-01-28T03:09:32.453Z,2.70
2023-01-28T03:12:42.846Z,2.80
2023-01-28T03:15:50.680Z,2.80
2023-01-28T03:18:50.223Z,2.70
2023-01-28T03:22:01.329Z,2.77
2023-01-28T03:25:02.752Z,2.73
2023-01-28T03:28:07.496Z,2.70
2023-01-28T03:31:23.431Z,2.73
2023-01-28T03:34:14.030Z,2.73
2023-01-28T03:36:49.623Z,2.77
2023-01-28T03:39:49.174Z,2.70
2023-01-28T03:42:18.649Z,2.77
2023-01-28T03:45:04.531Z,2.80
2023-01-28T03:47:34.070Z,2.80
2023-01-28T03:50:06.585Z,2.73
2023-01-28T03:52:40.456Z,2.73
2023-01-28T03:55:25.714Z,2.80
2023-01-28T03:57:52.737Z,2.77
2023-01-28T04:00:21.854Z,2.77
2023-01-28T04:02:49.044Z,2.80
2023-01-28T04:05:20.168Z,2.80
2023-01-28T04:07:55.013Z,2.70
2023-01-28T04:10:35.180Z,2.77
2023-01-28T04:13:10.718Z,2.77
2023-01-28T04:15:39.884Z,2.80
2023-01-28T04:18:06.952Z,2.77
2023-01-28T04:20:35.256Z,2.73
2023-01-28T04:23:02.542Z,2.70
2023-01-28T04:25:31.673Z,2.70
2023-01-28T04:27:59.324Z,2.73
2023-01-28T04:30:29.390Z,2.70
2023-01-28T04:33:05.945Z,2.73
2023-01-28T04:35:41.070Z,2.77
2023-01-28T04:38:31.591Z,2.70
2023-01-28T04:41:21.144Z,2.80
2023-01-28T04:43:49.235Z,2.73
2023-01-28T04:46:25.799Z,2.77
2023-01-28T04:49:03.385Z,2.77
2023-01-28T04:51:39.865Z,2.70
2023-01-28T04:54:24.507Z,2.73
2023-01-28T04:56:53.929Z,2.70
2023-01-28T04:59:21.188Z,2.70
2023-01-28T05:01:48.455Z,2.70
2023-01-28T05:04:17.199Z,2.80
2023-01-28T05:06:44.281Z,2.70
2023-01-28T05:09:15.477Z,2.73
2023-01-28T05:11:42.740Z,2.77
2023-01-28T05:14:09.767Z,2.73
2023-01-28T05:16:44.121Z,2.70
2023-01-28T05:19:12.081Z,2.73
2023-01-28T05:21:41.979Z,2.77
2023-01-28T05:24:18.240Z,2.80
2023-01-28T05:26:45.433Z,2.73
2023-01-28T05:29:12.515Z,2.73
2023-01-28T05:31:40.518Z,2.73
2023-01-28T05:34:08.367Z,2.80
2023-01-28T05:36:35.423Z,2.77
2023-01-28T05:39:09.514Z,2.70
2023-01-28T05:41:37.042Z,2.80
2023-01-28T05:44:04.452Z,2.70
2023-01-28T05:46:45.129Z,2.70
2023-01-28T05:49:32.049Z,2.73
2023-01-28T05:52:27.745Z,2.70
2023-01-28T05:54:54.827Z,2.70
2023-01-28T05:57:22.582Z,2.77
2023-01-28T05:59:50.671Z,2.70
2023-01-28T06:02:17.755Z,2.73
2023-01-28T06:04:44.904Z,2.73
2023-01-28T06:07:13.248Z,2.73
2023-01-28T06:09:40.444Z,2.70
2023-01-28T06:12:09.619Z,2.70
2023-01-28T06:14:49.999Z,2.70
2023-01-28T06:17:35.599Z,2.70
2023-01-28T06:20:09.535Z,2.77
2023-01-28T06:22:39.156Z,2.70
2023-01-28T06:25:07.285Z,2.70
2023-01-28T06:27:34.544Z,2.80
2023-01-28T06:30:02.026Z,2.70
2023-01-28T06:32:29.735Z,2.80
2023-01-28T06:34:57.424Z,2.70
2023-01-28T06:37:26.229Z,2.70
2023-01-28T06:39:53.416Z,2.77
2023-01-28T06:42:20.816Z,2.70
2023-01-28T06:44:47.868Z,2.80
2023-01-28T06:47:15.430Z,2.70
2023-01-28T06:49:42.920Z,2.73
2023-01-28T06:52:09.895Z,2.70
2023-01-28T06:54:36.843Z,2.80
2023-01-28T06:57:03.976Z,2.70
2023-01-28T06:59:32.485Z,2.70
2023-01-28T07:01:59.508Z,2.70
2023-01-28T07:04:26.985Z,2.70
2023-01-28T07:06:54.368Z,2.80
2023-01-28T07:09:21.339Z,2.77
2023-01-28T07:11:48.377Z,2.73
2023-01-28T07:14:15.362Z,2.70
2023-01-28T07:16:42.336Z,2.70
2023-01-28T07:19:09.724Z,2.70
2023-01-28T07:21:36.852Z,2.77
2023-01-28T07:24:05.291Z,2.70
2023-01-28T07:26:32.506Z,2.70
2023-01-28T07:29:00.228Z,2.70
2023-01-28T07:31:27.282Z,2.77
2023-01-28T07:33:54.511Z,2.70
2023-01-28T07:36:21.516Z,2.70
2023-01-28T07:38:48.530Z,2.77
2023-01-28T07:41:15.493Z,2.70
2023-01-28T07:43:42.493Z,2.70
2023-01-28T07:46:09.457Z,2.77
2023-01-28T07:48:36.465Z,2.70
2023-01-28T07:51:03.594Z,2.73
2023-01-28T07:53:30.605Z,2.77
2023-01-28T07:56:01.895Z,2.70
2023-01-28T07:58:29.110Z,2.70
2023-01-28T08:00:59.658Z,2.70
2023-01-28T08:03:28.283Z,2.70
2023-01-28T08:05:57.887Z,2.70
2023-01-28T08:08:29.668Z,2.70
2023-01-28T08:10:57.185Z,2.70
2023-01-28T08:13:24.686Z,2.70
2023-01-28T08:15:56.611Z,2.70
2023-01-28T08:18:23.854Z,2.70
2023-01-28T08:20:57.015Z,2.77
2023-01-28T08:23:26.833Z,2.70
2023-01-28T08:25:54.654Z,2.70
2023-01-28T08:28:22.364Z,2.70
2023-01-28T08:30:49.677Z,2.70
2023-01-28T08:33:19.034Z,2.67
2023-01-28T08:35:46.676Z,2.70
2023-01-28T08:38:18.001Z,2.70
2023-01-28T08:40:45.031Z,2.70
2023-01-28T08:43:12.600Z,2.70
2023-01-28T08:45:41.459Z,2.70
2023-01-28T08:48:15.891Z,2.70
2023-01-28T08:50:43.499Z,2.70
2023-01-28T08:53:19.575Z,2.70
2023-01-28T08:55:47.569Z,2.70
2023-01-28T08:58:18.556Z,2.70
2023-01-28T09:03:49.280Z,2.70
2023-01-28T09:06:16.491Z,2.70
2023-01-28T09:08:43.449Z,2.70
2023-01-28T09:11:10.439Z,2.77
2023-01-28T09:13:37.563Z,2.70
2023-01-28T09:16:08.894Z,2.70
2023-01-28T09:18:35.979Z,2.70
2023-01-28T09:21:07.061Z,2.70
2023-01-28T09:23:38.975Z,2.73
2023-01-28T09:26:07.090Z,2.70
2023-01-28T09:28:34.311Z,2.70
2023-01-28T09:31:09.274Z,2.70
2023-01-28T09:33:39.484Z,2.80
2023-01-28T09:36:10.200Z,2.70
2023-01-28T09:38:37.470Z,2.70
2023-01-28T09:41:25.958Z,2.70
2023-01-28T09:44:31.052Z,2.70
2023-01-28T09:47:35.540Z,2.73
2023-01-28T09:50:12.335Z,2.70
2023-01-28T09:52:42.373Z,2.70
2023-01-28T09:55:33.423Z,2.70
2023-01-28T09:58:00.595Z,2.70
2023-01-28T10:00:48.078Z,2.70
2023-01-28T10:04:13.541Z,2.70
2023-01-28T10:06:57.373Z,2.70
2023-01-28T10:09:41.480Z,2.73
2023-01-28T10:12:43.985Z,2.70
2023-01-28T10:16:00.006Z,2.70
2023-01-28T10:18:42.256Z,2.73
2023-01-28T10:21:54.524Z,2.70
2023-01-28T10:24:35.838Z,2.70
2023-01-28T10:27:29.488Z,2.70
2023-01-28T10:30:00.054Z,2.70
2023-01-28T10:32:36.216Z,2.73
2023-01-28T10:35:03.685Z,2.70
2023-01-28T10:37:40.166Z,2.67
2023-01-28T10:40:18.742Z,2.70
2023-01-28T10:42:46.237Z,2.73
2023-01-28T10:45:24.005Z,2.80
2023-01-28T10:48:08.175Z,2.70
2023-01-28T10:50:35.609Z,2.70
2023-01-28T10:53:07.023Z,2.70
2023-01-28T10:55:58.735Z,2.70
2023-01-28T10:58:31.250Z,2.70
2023-01-28T11:01:03.894Z,2.70
2023-01-28T11:03:31.479Z,2.70
2023-01-28T11:05:59.869Z,2.67
2023-01-28T11:08:30.083Z,2.70
2023-01-28T11:10:58.556Z,2.80
2023-01-28T11:13:29.872Z,2.70
2023-01-28T11:16:06.773Z,2.70
2023-01-28T11:18:46.151Z,2.70
2023-01-28T11:21:27.314Z,2.70
2023-01-28T11:24:03.812Z,2.70
2023-01-28T11:26:44.155Z,2.77
2023-01-28T11:29:34.575Z,2.70
2023-01-28T11:32:02.048Z,2.70
2023-01-28T11:34:35.322Z,2.70
2023-01-28T11:37:18.477Z,2.67
2023-01-28T11:39:45.499Z,2.70
2023-01-28T11:42:22.473Z,2.70
2023-01-28T11:44:50.387Z,2.67
2023-01-28T11:47:58.645Z,2.80
2023-01-28T11:50:41.754Z,2.80
2023-01-28T11:53:40.417Z,2.70
2023-01-28T11:56:37.016Z,2.70
2023-01-28T11:59:19.845Z,2.70
2023-01-28T12:02:03.075Z,2.70
2023-01-28T12:05:25.064Z,2.70
2023-01-28T12:08:18.705Z,2.73
2023-01-28T12:12:14.254Z,2.77
2023-01-28T12:15:20.981Z,2.70
2023-01-28T12:18:30.039Z,2.67
2023-01-28T12:21:12.168Z,2.63
2023-01-28T12:24:40.328Z,2.73
2023-01-28T12:28:04.708Z,2.70
2023-01-28T12:31:15.405Z,2.73
2023-01-28T12:34:17.363Z,2.73
2023-01-28T12:37:10.534Z,2.80
2023-01-28T12:40:41.150Z,2.70
2023-01-28T12:43:42.778Z,2.73
2023-01-28T12:46:53.851Z,2.73
2023-01-28T12:50:11.393Z,2.80
2023-01-28T12:52:54.333Z,2.73
2023-01-28T12:55:42.588Z,2.70
2023-01-28T12:58:33.440Z,2.70
2023-01-28T13:01:12.238Z,2.70
2023-01-28T13:03:55.674Z,2.77
2023-01-28T13:06:38.441Z,2.73
2023-01-28T13:09:23.771Z,2.87
2023-01-28T13:11:57.211Z,2.70
2023-01-28T13:14:32.322Z,2.70
2023-01-28T13:17:39.021Z,2.70
2023-01-28T13:20:48.930Z,2.80
2023-01-28T13:23:48.576Z,2.70
2023-01-28T13:26:18.533Z,2.77
2023-01-28T13:28:52.483Z,2.73
2023-01-28T13:31:24.372Z,2.77
2023-01-28T13:33:54.066Z,2.77
2023-01-28T13:36:39.146Z,2.70
2023-01-28T13:39:12.126Z,2.73
2023-01-28T13:41:49.026Z,2.70
2023-01-28T13:44:32.989Z,2.70
2023-01-28T13:47:21.686Z,2.70
2023-01-28T13:50:21.568Z,2.70
2023-01-28T13:53:41.217Z,2.70
2023-01-28T13:56:59.308Z,2.63
2023-01-28T13:59:47.186Z,2.70
2023-01-28T14:02:49.816Z,2.70
2023-01-28T14:05:59.955Z,2.70
2023-01-28T14:09:06.013Z,2.70
2023-01-28T14:12:03.217Z,2.70
2023-01-28T14:15:27.537Z,2.70
2023-01-28T14:17:58.141Z,2.73
2023-01-28T14:20:37.934Z,2.70
2023-01-28T14:23:17.371Z,2.73
2023-01-28T14:26:27.518Z,2.70
2023-01-28T14:29:17.967Z,2.77
2023-01-28T14:31:45.494Z,2.80
2023-01-28T14:34:31.187Z,2.80
2023-01-28T14:37:07.820Z,2.80
2023-01-28T14:40:00.670Z,2.80
2023-01-28T14:42:43.879Z,2.87
2023-01-28T14:45:53.665Z,2.80
2023-01-28T14:49:03.713Z,2.80
2023-01-28T14:52:19.704Z,2.90
2023-01-28T14:54:59.427Z,2.80
2023-01-28T14:57:45.471Z,2.73
2023-01-28T15:00:32.304Z,2.77
2023-01-28T15:03:00.005Z,2.80
2023-01-28T15:05:29.933Z,2.73
2023-01-28T15:07:57.383Z,2.80
2023-01-28T15:10:35.214Z,2.80
2023-01-28T15:13:21.524Z,2.70
2023-01-28T15:15:49.861Z,2.77
2023-01-28T15:18:35.935Z,2.80
2023-01-28T15:21:03.608Z,2.70
2023-01-28T15:23:38.695Z,2.70
2023-01-28T15:26:26.032Z,2.80
2023-01-28T15:28:55.539Z,2.80
2023-01-28T15:31:30.637Z,2.80
2023-01-28T15:34:13.367Z,2.80
2023-01-28T15:36:41.579Z,2.77
2023-01-28T15:39:20.724Z,2.70
2023-01-28T15:41:57.089Z,2.80
2023-01-28T15:44:39.517Z,2.80
2023-01-28T15:47:45.913Z,2.80
2023-01-28T15:50:25.302Z,2.80
2023-01-28T15:52:55.330Z,2.73
2023-01-28T15:55:44.859Z,2.80
2023-01-28T15:58:27.687Z,2.80
2023-01-28T16:01:16.918Z,2.73
2023-01-28T16:03:47.766Z,2.80
2023-01-28T16:06:22.273Z,2.80
2023-01-28T16:08:56.125Z,2.80
2023-01-28T16:11:41.289Z,2.70
2023-01-28T16:14:31.854Z,2.80
2023-01-28T16:16:59.157Z,2.80
2023-01-28T16:19:41.106Z,2.80
2023-01-28T16:22:20.389Z,2.77
2023-01-28T16:24:53.819Z,2.80
2023-01-28T16:27:29.365Z,2.80
2023-01-28T16:29:56.710Z,2.80
2023-01-28T16:32:38.683Z,2.80
2023-01-28T16:35:38.266Z,2.80
2023-01-28T16:38:16.959Z,2.80
2023-01-28T16:40:46.768Z,2.80
2023-01-28T16:43:16.821Z,2.80
2023-01-28T16:45:45.982Z,2.80
2023-01-28T16:48:13.963Z,2.83
2023-01-28T16:50:43.120Z,2.80
2023-01-28T16:53:28.578Z,2.80
2023-01-28T16:55:56.525Z,2.80
2023-01-28T16:58:27.169Z,2.87
2023-01-28T17:00:54.946Z,2.80
2023-01-28T17:03:23.110Z,2.80
2023-01-28T17:05:50.618Z,2.80
2023-01-28T17:08:18.169Z,2.80
2023-01-28T17:10:45.745Z,2.83
2023-01-28T17:13:12.837Z,2.87
2023-01-28T17:15:40.424Z,2.83
2023-01-28T17:18:10.297Z,2.80
2023-01-28T17:20:40.277Z,2.80
2023-01-28T17:23:12.747Z,2.80
2023-01-28T17:25:40.023Z,2.80
2023-01-28T17:28:09.619Z,2.80
2023-01-28T17:30:41.414Z,2.80
2023-01-28T17:33:09.523Z,2.87
2023-01-28T17:35:37.019Z,2.90
2023-01-28T17:38:05.927Z,2.80
2023-01-28T17:40:33.496Z,2.80
2023-01-28T17:43:00.543Z,2.83
2023-01-28T17:45:31.889Z,2.80
2023-01-28T17:47:59.019Z,2.90
2023-01-28T17:50:26.061Z,2.83
2023-01-28T17:52:57.885Z,2.80
2023-01-28T17:55:26.113Z,2.80
2023-01-28T17:57:53.544Z,2.90
2023-01-28T18:00:22.229Z,2.90
2023-01-28T18:02:52.844Z,2.83
2023-01-28T18:05:21.207Z,2.80
2023-01-28T18:07:50.166Z,2.87
2023-01-28T18:10:18.909Z,2.90
2023-01-28T18:12:46.517Z,2.87
2023-01-28T18:15:13.858Z,2.90
2023-01-28T18:17:41.094Z,2.80
2023-01-28T18:20:09.285Z,2.90
2023-01-28T18:22:36.798Z,2.90
2023-01-28T18:25:04.313Z,2.90
2023-01-28T18:27:31.354Z,2.90
2023-01-28T18:29:58.832Z,2.90
2023-01-28T18:32:25.891Z,2.83
2023-01-28T18:34:53.344Z,2.80
2023-01-28T18:37:20.786Z,2.90
2023-01-28T18:39:47.927Z,2.87
2023-01-28T18:42:15.060Z,2.90
2023-01-28T18:44:42.256Z,2.87
2023-01-28T18:47:10.728Z,2.83
2023-01-28T18:49:41.241Z,2.90
2023-01-28T18:52:08.506Z,2.90
2023-01-28T18:54:35.837Z,2.90
2023-01-28T18:57:03.628Z,2.83
2023-01-28T18:59:30.630Z,2.80
2023-01-28T19:01:57.713Z,2.87
2023-01-28T19:04:24.899Z,2.83
2023-01-28T19:06:57.328Z,2.90
2023-01-28T19:09:24.395Z,2.87
2023-01-28T19:11:52.213Z,2.90
2023-01-28T19:14:20.167Z,2.87
2023-01-28T19:16:47.518Z,2.83
2023-01-28T19:19:15.102Z,2.80
2023-01-28T19:21:42.138Z,2.90
2023-01-28T19:24:14.041Z,2.90
2023-01-28T19:26:44.671Z,2.83
2023-01-28T19:29:15.530Z,2.80
2023-01-28T19:31:44.503Z,2.90
2023-01-28T19:34:12.925Z,2.90
2023-01-28T19:36:40.618Z,2.90
2023-01-28T19:39:09.260Z,2.90
2023-01-28T19:41:37.273Z,2.87
2023-01-28T19:44:06.021Z,2.90
2023-01-28T19:46:35.927Z,2.90
2023-01-28T19:49:05.706Z,2.90
2023-01-28T19:51:33.287Z,2.90
2023-01-28T19:54:00.318Z,2.87
2023-01-28T19:56:29.688Z,2.90
2023-01-28T19:58:56.830Z,2.87
2023-01-28T20:01:30.203Z,2.90
2023-01-28T20:04:01.472Z,2.87
2023-01-28T20:06:31.211Z,2.87
2023-01-28T20:09:08.464Z,2.90
2023-01-28T20:11:36.326Z,2.87
2023-01-28T20:14:03.798Z,2.87
2023-01-28T20:16:35.184Z,2.90
2023-01-28T20:19:07.810Z,2.90
2023-01-28T20:21:36.211Z,2.90
2023-01-28T20:24:04.682Z,2.80
2023-01-28T20:26:37.370Z,2.87
2023-01-28T20:29:18.375Z,2.90
2023-01-28T20:31:57.454Z,2.90
2023-01-28T20:34:33.840Z,2.90
2023-01-28T20:37:03.201Z,2.90
2023-01-28T20:39:30.328Z,2.90
2023-01-28T20:41:57.287Z,2.87
2023-01-28T20:44:26.583Z,2.90
2023-01-28T20:46:54.153Z,2.90
2023-01-28T20:49:21.201Z,2.90
2023-01-28T20:51:48.699Z,2.90
2023-01-28T20:54:18.538Z,2.93
2023-01-28T20:56:46.110Z,2.90
2023-01-28T20:59:13.634Z,2.97
2023-01-28T21:01:41.487Z,2.97
2023-01-28T21:04:10.730Z,2.93
2023-01-28T21:06:39.899Z,2.90
2023-01-28T21:09:07.861Z,2.90
2023-01-28T21:11:35.803Z,3.00
2023-01-28T21:14:02.981Z,2.90
2023-01-28T21:16:30.390Z,2.90
2023-01-28T21:18:57.440Z,2.90
2023-01-28T21:21:28.678Z,2.90
2023-01-28T21:23:59.958Z,2.97
2023-01-28T21:26:27.849Z,3.00
2023-01-28T21:28:56.097Z,3.00
2023-01-28T21:31:26.480Z,2.93
2023-01-28T21:33:58.020Z,2.97
2023-01-28T21:36:27.366Z,2.93
2023-01-28T21:39:00.968Z,2.90
2023-01-28T21:41:28.581Z,2.90
2023-01-28T21:43:57.489Z,2.97
2023-01-28T21:46:29.851Z,2.90
2023-01-28T21:49:03.761Z,2.93
2023-01-28T21:51:40.126Z,3.00
2023-01-28T21:54:14.504Z,2.97
2023-01-28T21:56:45.134Z,2.97
2023-01-28T21:59:29.103Z,3.00
2023-01-28T22:02:14.860Z,3.00
2023-01-28T22:04:52.033Z,3.00
2023-01-28T22:07:20.161Z,3.00
2023-01-28T22:09:48.486Z,3.00
2023-01-28T22:12:16.135Z,2.97
2023-01-28T22:14:44.134Z,2.97
2023-01-28T22:17:11.947Z,2.97
2023-01-28T22:19:39.728Z,3.00
2023-01-28T22:22:07.383Z,3.00
2023-01-28T22:24:34.889Z,2.97
2023-01-28T22:27:02.465Z,3.00
2023-01-28T22:29:29.444Z,3.00
2023-01-28T22:31:57.031Z,3.00
2023-01-28T22:34:24.259Z,3.00
2023-01-28T22:36:51.875Z,3.00
2023-01-28T22:39:19.447Z,3.00
2023-01-28T22:41:47.481Z,3.00
2023-01-28T22:44:15.498Z,3.00
2023-01-28T22:46:42.673Z,3.00
2023-01-28T22:49:12.037Z,3.00
2023-01-28T22:51:39.213Z,3.03
2023-01-28T22:54:06.798Z,3.00
2023-01-28T22:56:33.837Z,2.97
2023-01-28T22:59:03.747Z,3.00
2023-01-28T23:01:31.301Z,2.97
2023-01-28T23:03:58.933Z,3.00
2023-01-28T23:06:28.067Z,3.00
2023-01-28T23:08:56.325Z,3.10
2023-01-28T23:11:28.306Z,3.03
2023-01-28T23:14:21.308Z,3.00
2023-01-28T23:17:08.728Z,3.00
2023-01-28T23:19:55.175Z,3.03
2023-01-28T23:22:52.718Z,3.00
2023-01-28T23:25:22.907Z,3.00
2023-01-28T23:27:50.415Z,3.00
2023-01-28T23:30:19.726Z,3.00
2023-01-28T23:32:49.623Z,3.00
2023-01-28T23:35:21.177Z,3.03
2023-01-28T23:37:49.287Z,3.03
2023-01-28T23:40:17.430Z,3.00
2023-01-28T23:42:52.511Z,3.00
2023-01-28T23:45:21.493Z,3.10
2023-01-28T23:47:49.185Z,3.00
2023-01-28T23:50:17.149Z,3.00
2023-01-28T23:52:44.884Z,3.00
2023-01-28T23:55:12.035Z,3.00
2023-01-28T23:57:39.409Z,3.00
